TimeCDT,TemperatureF,Dew PointF,Humidity,Sea Level PressureIn,VisibilityMPH,Wind Direction,Wind SpeedMPH,Gust SpeedMPH,PrecipitationIn,Events,Conditions,WindDirDegrees,DateUTC
12:52 AM,72.0,54.0,53,29.43,10.0,SSE,19.6,29.9,N/A,,Clear,160,2013-09-23 05:52:00
1:52 AM,71.1,53.1,53,29.42,10.0,SSE,16.1,24.2,N/A,,Clear,150,2013-09-23 06:52:00
2:52 AM,70.0,53.1,55,29.42,10.0,SSE,19.6,26.5,N/A,,Clear,150,2013-09-23 07:52:00
3:52 AM,68.0,54.0,61,29.43,10.0,SSE,16.1,23.0,N/A,,Clear,150,2013-09-23 08:52:00
4:52 AM,66.9,54.0,63,29.45,10.0,SSE,13.8,-,N/A,,Clear,160,2013-09-23 09:52:00
5:52 AM,64.9,53.1,65,29.46,10.0,SSE,15.0,-,N/A,,Clear,160,2013-09-23 10:52:00
6:52 AM,64.0,53.1,67,29.48,10.0,SSE,13.8,-,N/A,,Clear,160,2013-09-23 11:52:00
7:52 AM,63.0,52.0,67,29.50,10.0,SSE,10.4,-,N/A,,Clear,160,2013-09-23 12:52:00
8:52 AM,63.0,51.1,65,29.50,10.0,South,18.4,25.3,N/A,,Clear,170,2013-09-23 13:52:00
9:52 AM,66.0,51.1,59,29.51,10.0,South,19.6,24.2,N/A,,Clear,170,2013-09-23 14:52:00
10:52 AM,66.0,51.1,59,29.52,10.0,South,15.0,-,N/A,,Clear,170,2013-09-23 15:52:00
11:52 AM,72.0,51.1,48,29.53,10.0,South,16.1,20.7,N/A,,Mostly Cloudy,180,2013-09-23 16:52:00
12:52 PM,73.0,51.1,46,29.54,10.0,SSW,10.4,-,N/A,,Clear,210,2013-09-23 17:52:00
1:52 PM,72.0,53.1,51,29.55,10.0,WSW,8.1,-,N/A,,Clear,240,2013-09-23 18:52:00
2:52 PM,72.0,54.0,53,29.57,10.0,WSW,9.2,-,N/A,,Partly Cloudy,250,2013-09-23 19:52:00
3:52 PM,69.1,57.0,65,29.60,10.0,NW,16.1,23.0,N/A,,Mostly Cloudy,310,2013-09-23 20:52:00
4:52 PM,66.0,57.0,73,29.62,10.0,NNW,17.3,-,N/A,,Clear,330,2013-09-23 21:52:00
5:22 PM,62.6,57.2,82,29.67,10.0,NW,16.1,24.2,N/A,,Mostly Cloudy,310,2013-09-23 22:22:00
5:52 PM,61.0,55.0,81,29.68,10.0,NNW,19.6,26.5,N/A,,Overcast,330,2013-09-23 22:52:00
6:52 PM,60.1,54.0,80,29.71,10.0,NNW,16.1,25.3,N/A,,Mostly Cloudy,340,2013-09-23 23:52:00
7:52 PM,59.0,54.0,83,29.74,10.0,NNW,15.0,24.2,N/A,,Partly Cloudy,340,2013-09-24 00:52:00
8:52 PM,57.9,54.0,87,29.78,10.0,NNW,9.2,-,0.00,Rain,Light Rain,330,2013-09-24 01:52:00
9:15 PM,57.2,55.4,94,29.79,1.8,NNW,9.2,-,0.15,Rain,Heavy Rain,340,2013-09-24 02:15:00
9:23 PM,57.2,55.4,94,29.80,3.0,NW,8.1,-,0.20,Rain,Rain,320,2013-09-24 02:23:00
9:52 PM,57.0,55.9,96,29.80,9.0,North,4.6,-,0.22,Rain,Light Rain,350,2013-09-24 02:52:00
10:52 PM,57.0,55.9,96,29.83,10.0,Calm,Calm,-,0.01,,Overcast,0,2013-09-24 03:52:00
11:52 PM,57.0,55.0,93,29.82,10.0,North,3.5,-,N/A,,Overcast,360,2013-09-24 04:52:00